Time;durP1;ratioP1;P1;durP2;ratioP2;P2;SDS_P1;SDS_P2;PMS_P1;PMS_P2;Temp;Humidity;BMP_temperature;BMP_pressure;BME280_temperature;BME280_humidity;BME280_pressure;Samples;Min_cycle;Max_cycle;Signal;HPM_P1;HPM_P2
2022/04/17 00:02:23;;;;;;;4.30;3.55;;;;;;;;;;4950489;28;98524;-66
2022/04/17 00:04:49;;;;;;;4.38;3.72;;;;;;;;;;4950116;28;99017;-66
2022/04/17 00:07:15;;;;;;;6.28;3.75;;;;;;;;;;4953129;28;100310;-66
2022/04/17 00:09:42;;;;;;;5.10;3.78;;;;;;;;;;4948646;28;99317;-66
2022/04/17 00:12:09;;;;;;;5.47;3.47;;;;;;;;;;4949700;28;101175;-67
2022/04/17 00:14:38;;;;;;;5.33;3.97;;;;;;;;;;4948869;28;99535;-69
2022/04/17 00:17:04;;;;;;;5.80;3.75;;;;;;;;;;4950301;28;98573;-67
2022/04/17 00:19:30;;;;;;;5.00;3.50;;;;;;;;;;4950082;28;99267;-66
2022/04/17 00:21:57;;;;;;;8.05;3.40;;;;;;;;;;4948980;28;99789;-67
2022/04/17 00:24:26;;;;;;;3.97;3.15;;;;;;;;;;4949925;28;98547;-66
2022/04/17 00:26:53;;;;;;;5.20;3.40;;;;;;;;;;4950613;28;99071;-67
2022/04/17 00:29:19;;;;;;;5.13;3.65;;;;;;;;;;4952748;28;100874;-66
2022/04/17 00:31:47;;;;;;;8.23;3.72;;;;;;;;;;4953174;28;99976;-67
2022/04/17 00:34:13;;;;;;;5.80;3.70;;;;;;;;;;4951746;28;100663;-67
2022/04/17 00:36:39;;;;;;;7.63;3.38;;;;;;;;;;4952756;28;99153;-66
2022/04/17 00:39:06;;;;;;;3.50;3.15;;;;;;;;;;4953499;28;99259;-66
2022/04/17 00:41:32;;;;;;;8.85;3.90;;;;;;;;;;4951315;28;99544;-66
2022/04/17 00:43:58;;;;;;;4.90;3.58;;;;;;;;;;4952657;28;98690;-67
2022/04/17 00:46:24;;;;;;;3.92;3.30;;;;;;;;;;4953298;28;100392;-66
2022/04/17 00:48:51;;;;;;;3.58;3.28;;;;;;;;;;4952800;28;99490;-66
2022/04/17 00:51:18;;;;;;;6.50;3.80;;;;;;;;;;4956591;28;97862;-66
2022/04/17 00:53:45;;;;;;;4.75;3.50;;;;;;;;;;4953246;28;99139;-66
2022/04/17 00:56:11;;;;;;;4.72;3.60;;;;;;;;;;4953321;28;98512;-67
2022/04/17 00:58:38;;;;;;;9.05;3.88;;;;;;;;;;4951827;28;99672;-66
2022/04/17 01:01:04;;;;;;;4.00;3.33;;;;;;;;;;4950931;28;99326;-66
2022/04/17 01:03:30;;;;;;;4.13;3.58;;;;;;;;;;4952532;28;100295;-66
2022/04/17 01:05:58;;;;;;;7.90;3.63;;;;;;;;;;4952474;28;99341;-66
2022/04/17 01:08:24;;;;;;;3.70;3.35;;;;;;;;;;4952240;28;99487;-66
2022/04/17 01:10:50;;;;;;;6.30;3.78;;;;;;;;;;4953057;28;98633;-66
2022/04/17 01:13:17;;;;;;;5.47;3.42;;;;;;;;;;4955178;28;99178;-66
2022/04/17 01:15:44;;;;;;;7.57;3.83;;;;;;;;;;4951962;28;97863;-66
2022/04/17 01:18:10;;;;;;;3.85;3.45;;;;;;;;;;4952720;28;98532;-66
2022/04/17 01:20:38;;;;;;;6.43;3.47;;;;;;;;;;4951756;28;99203;-66
2022/04/17 01:28:33;;;;;;;7.00;3.60;;;;;;;;;;4951462;28;99468;-66
2022/04/17 01:31:01;;;;;;;6.53;3.67;;;;;;;;;;4952387;28;98560;-66
2022/04/17 01:33:29;;;;;;;4.78;3.53;;;;;;;;;;4954355;28;99263;-66
2022/04/17 01:35:55;;;;;;;8.68;4.15;;;;;;;;;;4937073;28;98616;-66
2022/04/17 01:38:21;;;;;;;7.20;3.45;;;;;;;;;;4947141;28;99201;-67
2022/04/17 01:40:48;;;;;;;10.68;3.10;;;;;;;;;;4952001;28;99883;-66
2022/04/17 01:43:14;;;;;;;5.47;3.47;;;;;;;;;;4950668;28;98731;-70
2022/04/17 01:45:40;;;;;;;4.60;3.28;;;;;;;;;;4952166;28;99153;-66
2022/04/17 01:48:06;;;;;;;5.55;3.58;;;;;;;;;;4950899;28;100652;-66
2022/04/17 01:50:33;;;;;;;4.90;3.90;;;;;;;;;;4951694;28;98611;-66
2022/04/17 01:53:00;;;;;;;6.82;4.00;;;;;;;;;;4951556;28;99813;-67
2022/04/17 01:55:27;;;;;;;5.65;3.45;;;;;;;;;;4954796;28;99663;-66
2022/04/17 01:57:53;;;;;;;4.90;3.78;;;;;;;;;;4951776;28;99237;-66
2022/04/17 02:00:19;;;;;;;4.20;3.63;;;;;;;;;;4951975;28;100457;-66
2022/04/17 02:02:46;;;;;;;8.55;4.10;;;;;;;;;;4950874;28;98542;-66
2022/04/17 02:05:12;;;;;;;5.80;3.92;;;;;;;;;;4952594;28;99184;-67
2022/04/17 02:07:38;;;;;;;9.73;4.18;;;;;;;;;;4950957;28;99280;-66
2022/04/17 02:10:05;;;;;;;9.55;4.30;;;;;;;;;;4951165;28;98577;-66
2022/04/17 02:12:33;;;;;;;6.60;4.00;;;;;;;;;;4950783;28;99290;-67
2022/04/17 02:15:00;;;;;;;6.25;4.25;;;;;;;;;;4951581;28;99723;-66
2022/04/17 02:17:26;;;;;;;5.90;3.97;;;;;;;;;;4954540;28;98558;-67
2022/04/17 02:19:52;;;;;;;9.68;4.18;;;;;;;;;;4951349;28;100652;-67
2022/04/17 02:22:18;;;;;;;4.93;4.00;;;;;;;;;;4951531;28;98640;-66
2022/04/17 02:24:45;;;;;;;11.93;4.35;;;;;;;;;;4951549;28;99167;-66
2022/04/17 02:27:11;;;;;;;5.72;3.97;;;;;;;;;;4951714;28;100605;-66
2022/04/17 02:29:37;;;;;;;9.55;4.30;;;;;;;;;;4951878;28;97883;-66
2022/04/17 02:32:04;;;;;;;5.97;4.35;;;;;;;;;;4951320;28;98486;-66
2022/04/17 02:34:30;;;;;;;5.05;4.03;;;;;;;;;;4949044;28;99466;-66
2022/04/17 02:36:56;;;;;;;5.28;3.72;;;;;;;;;;4951398;28;99423;-67
2022/04/17 02:39:22;;;;;;;7.60;4.45;;;;;;;;;;4953639;28;99918;-67
2022/04/17 02:41:49;;;;;;;5.20;4.28;;;;;;;;;;4951208;28;99701;-66
2022/04/17 02:44:15;;;;;;;6.47;3.97;;;;;;;;;;4951319;28;99175;-66
2022/04/17 02:49:26;;;;;;;9.13;4.68;;;;;;;;;;4935941;28;98631;-66
2022/04/17 02:51:52;;;;;;;9.52;4.03;;;;;;;;;;4950861;28;99126;-66
2022/04/17 02:54:18;;;;;;;7.65;4.82;;;;;;;;;;4950785;28;98834;-66
2022/04/17 02:56:46;;;;;;;6.28;3.83;;;;;;;;;;4944360;28;98483;-66
2022/04/17 02:59:12;;;;;;;5.68;4.22;;;;;;;;;;4951103;28;98771;-67
2022/04/17 03:07:08;;;;;;;6.13;4.15;;;;;;;;;;4950620;28;100550;-66
2022/04/17 03:09:34;;;;;;;5.90;4.47;;;;;;;;;;4950605;28;98571;-66
2022/04/17 03:12:00;;;;;;;9.25;4.50;;;;;;;;;;4950256;28;99113;-66
2022/04/17 03:14:27;;;;;;;6.20;3.75;;;;;;;;;;4946677;28;100512;-66
2022/04/17 03:16:53;;;;;;;5.15;3.80;;;;;;;;;;4947924;28;98551;-66
2022/04/17 03:19:19;;;;;;;8.32;4.45;;;;;;;;;;4951382;28;99139;-66
2022/04/17 03:21:45;;;;;;;7.38;4.30;;;;;;;;;;4950131;28;99474;-66
2022/04/17 03:24:12;;;;;;;8.45;4.78;;;;;;;;;;4954028;28;98609;-65
2022/04/17 03:26:41;;;;;;;5.60;4.30;;;;;;;;;;4949870;28;100745;-65
2022/04/17 03:29:07;;;;;;;6.80;4.30;;;;;;;;;;4950030;28;98586;-66
2022/04/17 03:31:33;;;;;;;5.47;4.68;;;;;;;;;;4951267;28;99126;-65
2022/04/17 03:34:00;;;;;;;9.02;3.90;;;;;;;;;;4950311;28;99573;-65
2022/04/17 03:36:26;;;;;;;4.57;3.85;;;;;;;;;;4950535;28;98964;-66
2022/04/17 03:38:52;;;;;;;7.53;4.32;;;;;;;;;;4950598;28;99994;-65
2022/04/17 03:41:18;;;;;;;8.82;4.45;;;;;;;;;;4949350;28;99465;-65
2022/04/17 03:43:45;;;;;;;6.15;3.92;;;;;;;;;;4953151;28;98612;-66
2022/04/17 03:46:11;;;;;;;5.10;4.15;;;;;;;;;;4949563;28;99472;-66
2022/04/17 03:48:37;;;;;;;5.25;4.75;;;;;;;;;;4950716;28;98596;-66
2022/04/17 03:51:04;;;;;;;6.20;4.45;;;;;;;;;;4950023;28;99554;-66
2022/04/17 03:53:30;;;;;;;5.07;4.28;;;;;;;;;;4950301;28;99566;-67
2022/04/17 03:55:56;;;;;;;5.72;4.47;;;;;;;;;;4950532;28;98521;-66
2022/04/17 03:58:23;;;;;;;10.75;4.40;;;;;;;;;;4949211;28;99274;-65
2022/04/17 04:00:49;;;;;;;13.02;4.78;;;;;;;;;;4949427;28;99815;-65
2022/04/17 04:03:15;;;;;;;6.32;4.47;;;;;;;;;;4950935;28;98582;-65
2022/04/17 04:05:42;;;;;;;5.13;4.43;;;;;;;;;;4955756;28;100212;-66
2022/04/17 04:08:08;;;;;;;5.78;4.57;;;;;;;;;;4950270;28;97939;-66
2022/04/17 04:10:35;;;;;;;6.90;4.88;;;;;;;;;;4953648;28;99508;-65
2022/04/17 04:13:03;;;;;;;7.43;4.68;;;;;;;;;;4948364;28;98437;-66
2022/04/17 04:15:29;;;;;;;6.88;4.60;;;;;;;;;;4953084;28;99401;-65
2022/04/17 04:17:57;;;;;;;11.35;4.85;;;;;;;;;;4953923;28;98826;-66
2022/04/17 04:20:23;;;;;;;8.20;4.40;;;;;;;;;;4952782;28;98974;-65
2022/04/17 04:22:50;;;;;;;7.07;4.40;;;;;;;;;;4952991;28;98570;-65
2022/04/17 04:25:16;;;;;;;5.38;3.95;;;;;;;;;;4953442;28;100391;-66
2022/04/17 04:30:27;;;;;;;9.95;4.22;;;;;;;;;;4952818;28;99185;-65
2022/04/17 04:32:54;;;;;;;10.40;4.30;;;;;;;;;;4953670;28;99763;-65
2022/04/17 04:35:20;;;;;;;6.75;4.18;;;;;;;;;;4953099;28;98580;-65
2022/04/17 04:37:47;;;;;;;8.00;4.90;;;;;;;;;;4953653;28;99093;-66
2022/04/17 04:40:15;;;;;;;6.20;4.80;;;;;;;;;;4951697;28;100286;-65
2022/04/17 04:42:42;;;;;;;6.65;4.25;;;;;;;;;;4951622;28;98594;-66
2022/04/17 04:47:53;;;;;;;8.13;4.35;;;;;;;;;;4951861;28;99527;-65
2022/04/17 04:50:19;;;;;;;7.85;4.40;;;;;;;;;;4956119;28;98524;-65
2022/04/17 04:52:46;;;;;;;5.55;4.20;;;;;;;;;;4952858;28;100613;-65
2022/04/17 04:55:12;;;;;;;7.35;4.45;;;;;;;;;;4952561;28;98555;-66
2022/04/17 04:57:39;;;;;;;10.02;4.70;;;;;;;;;;4953742;28;100256;-66
2022/04/17 05:00:06;;;;;;;5.75;4.50;;;;;;;;;;4942477;28;99497;-66
2022/04/17 05:02:37;;;;;;;8.30;4.35;;;;;;;;;;4952697;28;98745;-66
2022/04/17 05:05:04;;;;;;;7.93;4.85;;;;;;;;;;4950876;28;99245;-65
2022/04/17 05:07:31;;;;;;;5.97;4.43;;;;;;;;;;4952017;28;99248;-65
2022/04/17 05:09:57;;;;;;;6.47;5.47;;;;;;;;;;4952134;28;98595;-65
2022/04/17 05:12:23;;;;;;;6.65;4.80;;;;;;;;;;4955548;28;99275;-65
2022/04/17 05:14:49;;;;;;;8.80;4.95;;;;;;;;;;4952834;28;98508;-65
2022/04/17 05:17:16;;;;;;;11.48;4.40;;;;;;;;;;4951088;28;99153;-65
2022/04/17 05:19:42;;;;;;;6.32;4.20;;;;;;;;;;4952215;28;99519;-65
2022/04/17 05:22:15;;;;;;;6.43;4.18;;;;;;;;;;4952485;28;97774;-66
2022/04/17 05:24:43;;;;;;;8.35;4.78;;;;;;;;;;4952335;28;98628;-65
2022/04/17 05:27:09;;;;;;;8.98;4.72;;;;;;;;;;4932999;28;98698;-65
2022/04/17 05:29:35;;;;;;;7.50;4.80;;;;;;;;;;4944539;28;99989;-65
2022/04/17 05:32:02;;;;;;;6.10;4.65;;;;;;;;;;4955166;28;100323;-65
2022/04/17 05:34:29;;;;;;;7.15;5.20;;;;;;;;;;4952614;28;98553;-65
2022/04/17 05:36:56;;;;;;;7.38;4.95;;;;;;;;;;4952428;28;99219;-65
2022/04/17 05:39:22;;;;;;;6.30;4.43;;;;;;;;;;4951142;28;99565;-65
2022/04/17 05:41:50;;;;;;;11.07;4.93;;;;;;;;;;4952412;28;98526;-65
2022/04/17 05:44:16;;;;;;;9.57;5.55;;;;;;;;;;4952353;28;100142;-65
2022/04/17 05:46:42;;;;;;;7.63;5.47;;;;;;;;;;4952832;28;99812;-65
2022/04/17 05:49:09;;;;;;;11.30;5.63;;;;;;;;;;4952560;28;98852;-65
2022/04/17 05:51:39;;;;;;;8.02;5.35;;;;;;;;;;4951758;28;99238;-65
2022/04/17 05:54:07;;;;;;;9.13;6.15;;;;;;;;;;4954375;28;101370;-65
2022/04/17 05:56:34;;;;;;;8.88;5.93;;;;;;;;;;4951827;28;99844;-65
2022/04/17 05:59:01;;;;;;;11.35;6.18;;;;;;;;;;4951842;28;99445;-65
2022/04/17 06:01:27;;;;;;;12.50;6.88;;;;;;;;;;4951914;28;98600;-65
2022/04/17 06:03:53;;;;;;;20.52;6.80;;;;;;;;;;4951553;28;99221;-66
2022/04/17 06:06:19;;;;;;;12.57;7.65;;;;;;;;;;4950092;28;99529;-65
2022/04/17 06:08:46;;;;;;;10.32;7.72;;;;;;;;;;4950695;28;99907;-66
2022/04/17 06:11:13;;;;;;;15.45;9.18;;;;;;;;;;4951689;28;98898;-65
2022/04/17 06:13:39;;;;;;;14.65;8.80;;;;;;;;;;4950989;28;99550;-65
2022/04/17 06:16:06;;;;;;;16.55;9.90;;;;;;;;;;4951830;28;98767;-65
2022/04/17 06:18:32;;;;;;;17.67;10.68;;;;;;;;;;4949823;28;100264;-65
2022/04/17 06:20:59;;;;;;;15.23;9.73;;;;;;;;;;4950743;28;98544;-66
2022/04/17 06:23:25;;;;;;;16.50;10.10;;;;;;;;;;4951420;28;99274;-65
2022/04/17 06:25:51;;;;;;;19.27;10.27;;;;;;;;;;4948136;28;99640;-65
2022/04/17 06:28:17;;;;;;;15.25;9.40;;;;;;;;;;4948555;28;99041;-65
2022/04/17 06:30:44;;;;;;;13.88;9.68;;;;;;;;;;4951755;28;100336;-66
2022/04/17 06:33:10;;;;;;;13.73;9.27;;;;;;;;;;4948837;28;100453;-66
2022/04/17 06:35:36;;;;;;;13.82;9.60;;;;;;;;;;4951593;28;97821;-67
2022/04/17 06:38:03;;;;;;;12.52;8.75;;;;;;;;;;4953668;28;98509;-65
2022/04/17 06:40:31;;;;;;;14.73;9.68;;;;;;;;;;4951676;28;98703;-65
2022/04/17 06:43:00;;;;;;;13.15;8.35;;;;;;;;;;4950104;28;99878;-66
2022/04/17 06:45:26;;;;;;;17.40;9.38;;;;;;;;;;4951040;28;100621;-66
2022/04/17 06:47:54;;;;;;;15.48;9.32;;;;;;;;;;4951348;28;98628;-67
2022/04/17 06:50:22;;;;;;;18.05;8.65;;;;;;;;;;4951483;28;99206;-65
2022/04/17 06:52:48;;;;;;;14.60;9.00;;;;;;;;;;4947970;28;99519;-64
2022/04/17 06:55:15;;;;;;;12.77;7.85;;;;;;;;;;4951297;28;99132;-65
2022/04/17 06:57:48;;;;;;;23.45;8.80;;;;;;;;;;4950325;28;99147;-67
2022/04/17 07:00:15;;;;;;;9.23;7.35;;;;;;;;;;4954618;28;99924;-68
2022/04/17 07:02:42;;;;;;;13.48;7.60;;;;;;;;;;4950055;28;99060;-66
2022/04/17 07:05:09;;;;;;;10.65;7.20;;;;;;;;;;4950456;28;99399;-66
2022/04/17 07:07:35;;;;;;;15.30;8.20;;;;;;;;;;4951993;28;99254;-67
2022/04/17 07:10:02;;;;;;;13.00;7.25;;;;;;;;;;4970535;28;100378;-66
2022/04/17 07:12:31;;;;;;;10.88;7.47;;;;;;;;;;4950877;28;99575;-66
2022/04/17 07:15:00;;;;;;;13.23;6.80;;;;;;;;;;4950905;28;98556;-66
2022/04/17 07:17:34;;;;;;;11.18;6.55;;;;;;;;;;4950791;28;99202;-67
2022/04/17 07:20:00;;;;;;;10.32;6.47;;;;;;;;;;4950646;28;99424;-66
2022/04/17 07:22:26;;;;;;;9.70;6.10;;;;;;;;;;4954347;28;98484;-66
2022/04/17 07:24:54;;;;;;;10.27;6.63;;;;;;;;;;4950158;28;98920;-66
2022/04/17 07:27:20;;;;;;;8.30;5.57;;;;;;;;;;4950491;28;98658;-66
2022/04/17 07:29:47;;;;;;;11.27;5.78;;;;;;;;;;4946383;28;99190;-67
2022/04/17 07:32:13;;;;;;;7.22;5.40;;;;;;;;;;4946788;28;100247;-66
2022/04/17 07:34:39;;;;;;;9.50;6.28;;;;;;;;;;4948388;28;98915;-67
2022/04/17 07:37:06;;;;;;;11.00;5.68;;;;;;;;;;4949667;28;99144;-67
2022/04/17 07:39:32;;;;;;;9.85;5.70;;;;;;;;;;4949894;28;100501;-68
2022/04/17 07:41:59;;;;;;;8.98;5.32;;;;;;;;;;4953654;28;98421;-66
2022/04/17 07:44:29;;;;;;;10.38;5.63;;;;;;;;;;4949689;28;99584;-66
2022/04/17 07:46:56;;;;;;;8.95;5.60;;;;;;;;;;4950757;28;98677;-67
2022/04/17 07:49:26;;;;;;;11.25;6.10;;;;;;;;;;4950103;28;99170;-66
2022/04/17 07:51:52;;;;;;;8.63;5.40;;;;;;;;;;4948405;28;99878;-72
2022/04/17 07:54:19;;;;;;;6.18;5.00;;;;;;;;;;4950382;28;98560;-66
2022/04/17 07:56:45;;;;;;;11.70;5.95;;;;;;;;;;4949627;28;100493;-67
2022/04/17 07:59:12;;;;;;;9.02;5.85;;;;;;;;;;4950111;28;99697;-67
2022/04/17 08:01:40;;;;;;;8.75;5.65;;;;;;;;;;4949584;28;98637;-67
2022/04/17 08:04:07;;;;;;;9.43;5.88;;;;;;;;;;4953069;28;99417;-67
2022/04/17 08:06:33;;;;;;;12.02;5.85;;;;;;;;;;4950669;28;98774;-67
2022/04/17 08:09:00;;;;;;;9.48;6.00;;;;;;;;;;4947170;28;99213;-68
2022/04/17 08:11:28;;;;;;;10.20;5.95;;;;;;;;;;4949526;28;99530;-67
2022/04/17 08:13:55;;;;;;;9.48;5.47;;;;;;;;;;4941486;28;98318;-67
2022/04/17 08:16:21;;;;;;;9.85;5.75;;;;;;;;;;4949814;28;98587;-66
2022/04/17 08:18:48;;;;;;;7.40;5.72;;;;;;;;;;4949030;28;99602;-67
2022/04/17 08:21:16;;;;;;;8.43;5.90;;;;;;;;;;4947960;28;99289;-66
2022/04/17 08:23:42;;;;;;;8.38;5.82;;;;;;;;;;4949251;28;100021;-66
2022/04/17 08:26:08;;;;;;;10.48;6.18;;;;;;;;;;4952459;28;99588;-66
2022/04/17 08:28:35;;;;;;;13.80;6.22;;;;;;;;;;4948766;28;99255;-66
2022/04/17 08:31:01;;;;;;;10.73;5.65;;;;;;;;;;4949140;28;99220;-67
2022/04/17 08:33:28;;;;;;;9.63;6.20;;;;;;;;;;4949536;28;99786;-66
2022/04/17 08:35:54;;;;;;;8.73;6.20;;;;;;;;;;4950120;28;100203;-66
2022/04/17 08:38:22;;;;;;;10.25;6.20;;;;;;;;;;4949288;28;98667;-67
2022/04/17 08:40:49;;;;;;;10.13;5.88;;;;;;;;;;4949396;28;98648;-67
2022/04/17 08:43:18;;;;;;;10.07;5.93;;;;;;;;;;4950040;28;100330;-67
2022/04/17 08:45:46;;;;;;;8.52;5.90;;;;;;;;;;4949522;28;101269;-67
2022/04/17 08:48:12;;;;;;;8.15;5.53;;;;;;;;;;4953541;28;98562;-67
2022/04/17 08:50:40;;;;;;;12.23;6.35;;;;;;;;;;4949916;28;99556;-67
2022/04/17 08:53:07;;;;;;;11.18;6.43;;;;;;;;;;4953262;28;98547;-66
2022/04/17 08:55:33;;;;;;;9.45;5.97;;;;;;;;;;4949200;28;99282;-66
2022/04/17 08:57:59;;;;;;;10.10;6.22;;;;;;;;;;4952401;28;99711;-67
2022/04/17 09:00:26;;;;;;;10.07;6.00;;;;;;;;;;4952874;28;98628;-67
2022/04/17 09:02:52;;;;;;;8.82;6.10;;;;;;;;;;4952755;28;99220;-67
2022/04/17 09:05:19;;;;;;;12.20;5.82;;;;;;;;;;4951611;28;99546;-67
2022/04/17 09:07:46;;;;;;;10.18;6.03;;;;;;;;;;4952261;28;98862;-67
2022/04/17 09:10:23;;;;;;;7.63;5.35;;;;;;;;;;4954930;28;99519;-66
2022/04/17 09:12:50;;;;;;;14.32;5.03;;;;;;;;;;4953181;28;98584;-67
2022/04/17 09:15:17;;;;;;;10.35;5.38;;;;;;;;;;4958012;28;99142;-67
2022/04/17 09:17:43;;;;;;;7.40;5.47;;;;;;;;;;4964612;28;99538;-67
2022/04/17 09:20:17;;;;;;;7.03;4.82;;;;;;;;;;4952774;28;98920;-67
2022/04/17 09:22:47;;;;;;;5.95;3.60;;;;;;;;;;4951417;28;99181;-67
2022/04/17 09:25:14;;;;;;;5.87;2.93;;;;;;;;;;4954554;28;100548;-67
2022/04/17 09:27:53;;;;;;;4.95;3.20;;;;;;;;;;4952669;28;97817;-67
2022/04/17 09:30:30;;;;;;;4.82;3.25;;;;;;;;;;4951810;28;98609;-67
2022/04/17 09:32:57;;;;;;;3.97;3.45;;;;;;;;;;4941153;28;99564;-67
2022/04/17 09:35:24;;;;;;;5.15;3.53;;;;;;;;;;4952015;28;99200;-66
2022/04/17 09:37:54;;;;;;;7.65;3.25;;;;;;;;;;4951667;28;99535;-67
2022/04/17 09:40:20;;;;;;;3.80;3.40;;;;;;;;;;4951779;28;98647;-68
2022/04/17 09:42:48;;;;;;;8.10;3.92;;;;;;;;;;4952833;28;100113;-68
2022/04/17 09:45:14;;;;;;;5.68;3.42;;;;;;;;;;4952882;28;100569;-67
2022/04/17 09:47:54;;;;;;;5.25;3.17;;;;;;;;;;4952885;28;99230;-68
2022/04/17 09:50:28;;;;;;;4.93;3.65;;;;;;;;;;4952612;28;99317;-68
2022/04/17 09:52:56;;;;;;;5.38;3.70;;;;;;;;;;4955810;28;99830;-67
2022/04/17 09:55:26;;;;;;;4.72;4.15;;;;;;;;;;4952375;28;98604;-67
2022/04/17 09:57:56;;;;;;;4.90;3.70;;;;;;;;;;4952181;28;99335;-67
2022/04/17 10:00:23;;;;;;;6.28;4.13;;;;;;;;;;4951367;28;99501;-67
2022/04/17 10:02:50;;;;;;;6.32;4.00;;;;;;;;;;4952258;28;100066;-68
2022/04/17 10:05:20;;;;;;;5.20;3.90;;;;;;;;;;4951857;28;99451;-68
2022/04/17 10:07:47;;;;;;;4.80;3.78;;;;;;;;;;4951837;28;98540;-68
2022/04/17 10:10:14;;;;;;;5.07;3.63;;;;;;;;;;4952218;28;100242;-68
2022/04/17 10:12:45;;;;;;;5.00;3.78;;;;;;;;;;4951985;28;99950;-68
2022/04/17 10:15:12;;;;;;;16.52;4.15;;;;;;;;;;4955409;28;98613;-68
2022/04/17 10:17:40;;;;;;;7.07;4.00;;;;;;;;;;4952311;28;98794;-68
2022/04/17 10:20:08;;;;;;;9.45;3.72;;;;;;;;;;4952041;28;98577;-68
2022/04/17 10:22:35;;;;;;;7.18;4.30;;;;;;;;;;4952041;28;100261;-66
2022/04/17 10:25:03;;;;;;;4.53;3.40;;;;;;;;;;4951517;28;101343;-66
2022/04/17 10:27:35;;;;;;;6.15;3.80;;;;;;;;;;4951979;28;98692;-67
2022/04/17 10:30:04;;;;;;;7.20;3.33;;;;;;;;;;4952136;28;100049;-67
2022/04/17 10:32:38;;;;;;;9.43;3.50;;;;;;;;;;4950906;28;100015;-67
2022/04/17 10:35:17;;;;;;;7.18;3.35;;;;;;;;;;4951493;28;98583;-67
2022/04/17 10:37:56;;;;;;;3.58;2.95;;;;;;;;;;4954590;28;100111;-67
2022/04/17 10:40:23;;;;;;;5.82;3.00;;;;;;;;;;4951548;28;98653;-67
2022/04/17 10:42:54;;;;;;;3.33;2.53;;;;;;;;;;4952252;28;99423;-70
2022/04/17 10:45:21;;;;;;;3.78;2.88;;;;;;;;;;4951290;28;99912;-68
2022/04/17 10:48:20;;;;;;;3.20;2.65;;;;;;;;;;4951262;28;98887;-68
2022/04/17 10:50:49;;;;;;;2.90;2.20;;;;;;;;;;4948778;28;99913;-69
2022/04/17 10:53:31;;;;;;;5.35;2.72;;;;;;;;;;4950957;28;100032;-69
2022/04/17 10:56:10;;;;;;;3.72;2.83;;;;;;;;;;4950929;28;99240;-68
2022/04/17 10:58:56;;;;;;;4.35;2.13;;;;;;;;;;4951048;28;100884;-68
2022/04/17 11:01:41;;;;;;;4.50;2.80;;;;;;;;;;4953105;28;100322;-68
2022/04/17 11:04:17;;;;;;;3.47;2.65;;;;;;;;;;4949902;28;100260;-68
2022/04/17 11:06:43;;;;;;;2.80;2.47;;;;;;;;;;4949533;28;100597;-69
2022/04/17 11:09:10;;;;;;;9.25;2.67;;;;;;;;;;4949979;28;99320;-69
2022/04/17 11:11:40;;;;;;;3.33;2.17;;;;;;;;;;4950143;28;101378;-69
2022/04/17 11:14:18;;;;;;;6.90;2.45;;;;;;;;;;4948506;28;101011;-69
2022/04/17 11:16:56;;;;;;;3.90;2.40;;;;;;;;;;4949136;28;100927;-69
2022/04/17 11:19:24;;;;;;;3.92;2.38;;;;;;;;;;4949581;28;102755;-70
2022/04/17 11:21:52;;;;;;;3.95;2.55;;;;;;;;;;4949301;28;101550;-70
2022/04/17 11:24:19;;;;;;;6.65;2.25;;;;;;;;;;4952419;28;100548;-69
2022/04/17 11:26:54;;;;;;;5.20;1.88;;;;;;;;;;4948762;28;101640;-69
2022/04/17 11:29:39;;;;;;;3.60;2.00;;;;;;;;;;4948405;28;100735;-69
2022/04/17 11:32:17;;;;;;;3.47;1.98;;;;;;;;;;4949299;28;102005;-69
2022/04/17 11:34:47;;;;;;;3.72;2.00;;;;;;;;;;4948775;28;101778;-69
2022/04/17 11:37:16;;;;;;;2.75;1.90;;;;;;;;;;4949061;28;100706;-69
2022/04/17 11:39:43;;;;;;;2.08;1.83;;;;;;;;;;4948442;28;102590;-70
2022/04/17 11:42:09;;;;;;;2.58;1.95;;;;;;;;;;4947891;28;102052;-69
2022/04/17 11:44:36;;;;;;;5.38;1.83;;;;;;;;;;4948949;28;100765;-68
2022/04/17 11:47:02;;;;;;;3.63;2.00;;;;;;;;;;4952105;28;101337;-69
2022/04/17 11:49:32;;;;;;;3.80;1.95;;;;;;;;;;4948190;28;100660;-70
2022/04/17 11:52:17;;;;;;;3.28;2.53;;;;;;;;;;4948813;28;101914;-69
2022/04/17 11:54:44;;;;;;;2.22;2.03;;;;;;;;;;4948123;28;101776;-70
2022/04/17 11:57:11;;;;;;;7.80;2.60;;;;;;;;;;4948582;28;100598;-69
2022/04/17 11:59:44;;;;;;;2.85;2.25;;;;;;;;;;4948706;28;101335;-69
2022/04/17 12:02:16;;;;;;;2.30;2.10;;;;;;;;;;4947410;28;102341;-71
2022/04/17 12:04:43;;;;;;;3.78;2.47;;;;;;;;;;4948604;28;100634;-70
2022/04/17 12:07:10;;;;;;;2.53;2.22;;;;;;;;;;4950096;28;101586;-70
2022/04/17 12:09:36;;;;;;;3.40;2.00;;;;;;;;;;4947885;28;101040;-70
2022/04/17 12:12:09;;;;;;;6.40;2.30;;;;;;;;;;4948142;28;100798;-70
2022/04/17 12:14:35;;;;;;;2.75;1.95;;;;;;;;;;4948356;28;101367;-69
2022/04/17 12:17:01;;;;;;;4.55;2.53;;;;;;;;;;4948849;28;100730;-70
2022/04/17 12:19:29;;;;;;;2.15;1.95;;;;;;;;;;4947394;28;100880;-69
2022/04/17 12:21:55;;;;;;;3.13;2.30;;;;;;;;;;4947863;28;101236;-70
2022/04/17 12:24:27;;;;;;;4.15;2.63;;;;;;;;;;4949549;28;99857;-71
2022/04/17 12:26:54;;;;;;;2.75;2.15;;;;;;;;;;4952021;28;100623;-70
2022/04/17 12:29:20;;;;;;;2.97;2.35;;;;;;;;;;4954672;28;101369;-71
2022/04/17 12:31:47;;;;;;;5.03;2.45;;;;;;;;;;4951351;28;101169;-70
2022/04/17 12:34:15;;;;;;;3.25;2.00;;;;;;;;;;4952026;28;102259;-70
2022/04/17 12:36:44;;;;;;;4.90;2.20;;;;;;;;;;4952081;28;99934;-69
2022/04/17 12:39:10;;;;;;;;;;;;;;;;;;4953694;28;101325;-70
2022/04/17 12:41:48;;;;;;;3.55;2.30;;;;;;;;;;4953577;28;130982;-69
2022/04/17 12:44:14;;;;;;;4.40;2.30;;;;;;;;;;4953591;28;98948;-70
2022/04/17 12:46:43;;;;;;;3.35;2.40;;;;;;;;;;4953805;28;100101;-70
2022/04/17 12:49:15;;;;;;;4.72;2.40;;;;;;;;;;4953700;28;98819;-70
2022/04/17 12:51:57;;;;;;;4.38;2.25;;;;;;;;;;4956776;28;98579;-70
2022/04/17 12:54:30;;;;;;;6.05;2.30;;;;;;;;;;4953039;28;99713;-70
2022/04/17 12:57:10;;;;;;;5.80;2.70;;;;;;;;;;4952979;28;99266;-70
2022/04/17 12:59:40;;;;;;;3.78;2.20;;;;;;;;;;4953449;28;101152;-70
2022/04/17 13:02:13;;;;;;;2.53;2.25;;;;;;;;;;4952578;28;99570;-70
2022/04/17 13:04:40;;;;;;;3.00;2.40;;;;;;;;;;4953681;28;98505;-70
2022/04/17 13:07:11;;;;;;;4.07;2.80;;;;;;;;;;4952979;28;99292;-69
2022/04/17 13:09:37;;;;;;;8.25;2.88;;;;;;;;;;4952440;28;100528;-70
2022/04/17 13:12:04;;;;;;;4.25;3.05;;;;;;;;;;4967012;28;98630;-69
2022/04/17 13:14:30;;;;;;;5.57;3.15;;;;;;;;;;4971784;28;100394;-70
2022/04/17 13:16:57;;;;;;;4.28;3.28;;;;;;;;;;4953325;28;98480;-69
2022/04/17 13:19:25;;;;;;;3.88;3.08;;;;;;;;;;4953084;28;99208;-68
2022/04/17 13:21:52;;;;;;;7.95;3.10;;;;;;;;;;4952229;28;101296;-69
2022/04/17 13:24:22;;;;;;;4.97;3.13;;;;;;;;;;4953023;28;98702;-69
2022/04/17 13:26:49;;;;;;;5.90;3.47;;;;;;;;;;4951228;28;99582;-70
2022/04/17 13:29:15;;;;;;;4.20;3.30;;;;;;;;;;4967650;28;99688;-70
2022/04/17 13:31:42;;;;;;;3.95;3.00;;;;;;;;;;4952836;28;98541;-70
2022/04/17 13:34:08;;;;;;;4.10;3.63;;;;;;;;;;4952792;28;99193;-70
2022/04/17 13:36:35;;;;;;;4.65;3.35;;;;;;;;;;4954901;28;99580;-69
2022/04/17 13:39:01;;;;;;;5.90;3.20;;;;;;;;;;4953397;28;99176;-69
2022/04/17 13:41:28;;;;;;;6.90;3.80;;;;;;;;;;4951535;28;99655;-70
2022/04/17 13:43:55;;;;;;;6.68;3.63;;;;;;;;;;4953298;28;98542;-69
2022/04/17 13:46:28;;;;;;;9.95;3.88;;;;;;;;;;4952462;28;99354;-69
2022/04/17 13:48:56;;;;;;;6.18;3.97;;;;;;;;;;4952210;28;99549;-69
2022/04/17 13:51:22;;;;;;;8.88;3.95;;;;;;;;;;4952604;28;98538;-69
2022/04/17 13:53:48;;;;;;;10.73;3.58;;;;;;;;;;4951956;28;99140;-69
2022/04/17 13:56:17;;;;;;;4.65;3.40;;;;;;;;;;4951883;28;100169;-70
2022/04/17 13:58:44;;;;;;;6.05;3.75;;;;;;;;;;4955352;28;98490;-69
2022/04/17 14:01:11;;;;;;;4.68;3.58;;;;;;;;;;4952133;28;99586;-69
2022/04/17 14:03:38;;;;;;;6.68;3.22;;;;;;;;;;4953128;28;97797;-70
2022/04/17 14:06:05;;;;;;;7.18;3.22;;;;;;;;;;4952462;28;98626;-71
2022/04/17 14:08:32;;;;;;;7.45;3.47;;;;;;;;;;4951300;28;99489;-70
2022/04/17 14:10:59;;;;;;;7.50;3.55;;;;;;;;;;4951566;28;99488;-68
2022/04/17 14:13:26;;;;;;;4.15;2.90;;;;;;;;;;4952308;28;99846;-70
2022/04/17 14:15:52;;;;;;;6.63;3.15;;;;;;;;;;4951950;28;99382;-68
2022/04/17 14:18:18;;;;;;;5.45;3.25;;;;;;;;;;4954628;28;98544;-69
2022/04/17 14:20:44;;;;;;;6.97;3.30;;;;;;;;;;4950783;28;100193;-70
2022/04/17 14:23:11;;;;;;;7.35;2.97;;;;;;;;;;4951695;28;98557;-70
2022/04/17 14:25:37;;;;;;;3.85;3.38;;;;;;;;;;4951040;28;101127;-73
2022/04/17 14:28:03;;;;;;;4.05;3.08;;;;;;;;;;4950248;28;97849;-70
2022/04/17 14:30:30;;;;;;;7.53;2.95;;;;;;;;;;4952069;28;98558;-69
2022/04/17 14:32:59;;;;;;;4.13;2.92;;;;;;;;;;4949728;28;99144;-70
2022/04/17 14:35:25;;;;;;;8.35;3.30;;;;;;;;;;4950512;28;100363;-71
2022/04/17 14:37:51;;;;;;;4.25;3.65;;;;;;;;;;4951998;28;98496;-71
2022/04/17 14:40:18;;;;;;;4.70;2.90;;;;;;;;;;4953808;28;98725;-71
2022/04/17 14:42:44;;;;;;;5.38;3.05;;;;;;;;;;4951969;28;98516;-70
2022/04/17 14:45:17;;;;;;;6.57;3.08;;;;;;;;;;4950990;28;99198;-70
2022/04/17 14:47:44;;;;;;;4.22;3.00;;;;;;;;;;4950359;28;100670;-69
2022/04/17 14:50:10;;;;;;;5.20;3.30;;;;;;;;;;4949755;28;98512;-70
2022/04/17 14:52:36;;;;;;;3.58;3.13;;;;;;;;;;4948259;28;99247;-70
2022/04/17 14:55:03;;;;;;;7.22;2.83;;;;;;;;;;4944772;28;99578;-71
2022/04/17 14:57:29;;;;;;;4.47;3.20;;;;;;;;;;4938701;28;101524;-71
2022/04/17 14:59:56;;;;;;;7.10;3.22;;;;;;;;;;4949987;28;100550;-71
2022/04/17 15:02:23;;;;;;;6.68;3.55;;;;;;;;;;4953822;28;99913;-72